Terminal Aerodrome Forecast
Issued by NWS

Home | Current Version | Previous Version | Text Only | Print | Product List | Glossary On
Versions: 1 2 3 4 5 6 7 8 9 10 11 12 13 14 15 16 17 18 19 20 21 22 23 24
000
FTAK31 PAFA 230532
TAFAFA
TAF
PAFA 230532Z 2306/2412 03005KT P6SM SCT060 BKN120
     FM231800 04003KT P6SM BKN060 BKN100=

USA.gov is the U.S. government's official web portal to all federal, state and local government web resources and services.